Flight Track Log - Related Links

Times and Time Zones

All times are in EST time to prevent confusion due to time zone crossing. See the N77VZ flight status page for this flight to view local times or setup timezone preferences in your user account.

Time Position Orientation Groundspeed Altitude Reporting Facility
EST Latitude Longitude Course Direction KTS MPH feet Rate Location/Type
Tue 12:17:36 PM 26.2028 -81.7003 336° Northwest 209 241 3,700  Level Miami Center
Tue 12:18:36 PM 26.2483 -81.7114 348° North 215 247 6,300 2,600 Climbing Miami Center
Tue 12:19:36 PM 26.2628 -81.7792 283° West 162 186 8,900 2,500 Climbing Miami Center
Tue 12:20:36 PM 26.2750 -81.8492 281° West 214 246 11,300 2,350 Climbing Miami Center
Tue 12:21:36 PM 26.2914 -81.9169 285° West 233 268 13,600 2,250 Climbing Miami Center
Tue 12:22:36 PM 26.3039 -81.9825 282° West 238 274 15,800 2,100 Climbing Miami Center
Tue 12:23:00 PM 26.7135 -81.7319 336° Northwest  Level Estimated
Tue 12:23:36 PM 26.3222 -82.0503 287° West 238 274 17,800  Level Miami Center
Tue 12:24:36 PM 26.3425 -82.1256 287° West 243 280 19,400 1,600 Climbing Miami Center
Tue 12:25:36 PM 26.3606 -82.2003 285° West 243 280 21,000 1,550 Climbing Miami Center
Tue 12:26:36 PM 26.4194 -82.2494 323° Northwest 243 280 22,500 1,550 Climbing Miami Center
Tue 12:27:36 PM 26.4889 -82.2875 334° Northwest 251 289 24,100 1,550 Climbing Miami Center
Tue 12:28:36 PM 26.5628 -82.3256 335° Northwest 271 312 25,600 1,450 Climbing Miami Center
Tue 12:29:36 PM 26.6342 -82.3683 332° Northwest 281 323 27,000 1,400 Climbing Miami Center
Tue 12:30:36 PM 26.7036 -82.4089 332° Northwest 281 323 28,400 1,200 Climbing Miami Center
Tue 12:31:36 PM 26.7811 -82.4519 334° Northwest 286 329 29,400 1,000 Climbing Miami Center
Tue 12:32:36 PM 26.8589 -82.4953 334° Northwest 299 344 30,400 1,000 Climbing Miami Center
Tue 12:33:36 PM 26.9386 -82.5386 334° Northwest 309 356 31,400 1,000 Climbing Miami Center
Tue 12:34:36 PM 27.0181 -82.5869 332° Northwest 315 362 32,400 1,000 Climbing Miami Center
Tue 12:35:36 PM 27.0997 -82.6306 335° Northwest 320 368 33,400 1,050 Climbing Miami Center
Tue 12:36:36 PM 27.1772 -82.6764 332° Northwest 320 368 34,500 1,050 Climbing Miami Center
Tue 12:37:36 PM 27.2631 -82.7228 334° Northwest 320 368 35,500 800 Climbing Miami Center
Tue 12:38:36 PM 27.3303 -82.7636 332° Northwest 314 361 36,100 700 Climbing Miami Center
Tue 12:39:36 PM 27.4286 -82.8036 340° North 328 377 36,900 636 Climbing Miami Center
Tue 12:41:07 PM 27.5658 -82.7967 North 334 384 37,700 596 Climbing Jacksonville Center
Tue 12:42:07 PM 27.6658 -82.7847 North 339 390 38,400 700 Climbing Jacksonville Center
Tue 12:43:07 PM 27.7639 -82.7731 North 351 404 39,100 650 Climbing Jacksonville Center
Tue 12:44:07 PM 27.8578 -82.7636 North 346 398 39,700 450 Climbing Jacksonville Center
Tue 12:45:07 PM 27.9558 -82.7539 North 346 398 40,000 150 Climbing Jacksonville Center
Tue 12:46:07 PM 28.0558 -82.7397 North 351 404 40,000  Level Jacksonville Center
Tue 12:47:07 PM 28.1603 -82.7303 North 357 411 40,000  Level Jacksonville Center
Tue 12:48:07 PM 28.2644 -82.7181 North 369 425 40,000  Level Jacksonville Center
Tue 12:49:07 PM 28.3689 -82.7086 North 369 425 40,000  Level Jacksonville Center
Tue 12:50:07 PM 28.4753 -82.6942 North 374 430 40,000  Level Jacksonville Center
Tue 12:51:07 PM 28.5839 -82.6844 North 379 436 40,000  Level Jacksonville Center
Tue 12:52:07 PM 28.6964 -82.6678 North 384 442 40,000  Level Jacksonville Center
Tue 12:53:07 PM 28.8050 -82.6581 North 379 436 40,000  Level Jacksonville Center
Tue 12:54:07 PM 28.9114 -82.6436 North 384 442 40,000  Level Jacksonville Center
Tue 12:55:07 PM 29.0200 -82.6314 North 384 442 40,000  Level Jacksonville Center
Tue 12:56:07 PM 29.1264 -82.6217 North 384 442 40,000  Level Jacksonville Center
Tue 12:57:07 PM 29.2350 -82.6094 North 384 442 40,000  Level Jacksonville Center
Tue 12:58:07 PM 29.3331 -82.5972 North 384 442 40,000 100 Level Jacksonville Center
Tue 12:59:07 PM 29.4394 -82.5850 North 384 442 40,200 300 Climbing Jacksonville Center
Tue 01:00:07 PM 29.5458 -82.5728 North 384 442 40,600 400 Climbing Jacksonville Center
Tue 01:01:07 PM 29.6544 -82.5483 11° North 389 448 41,000 200 Climbing Jacksonville Center
Tue 01:02:07 PM 29.7586 -82.5217 13° North 389 448 41,000  Level Jacksonville Center
Tue 01:03:07 PM 29.8650 -82.4975 11° North 384 442 41,000  Level Jacksonville Center
Tue 01:04:07 PM 29.9714 -82.4706 12° North 384 442 41,000  Level Jacksonville Center
Tue 01:05:07 PM 30.0883 -82.4461 10° North 389 448 41,000  Level Jacksonville Center
Tue 01:06:07 PM 30.1967 -82.4192 12° North 389 448 41,000  Level Jacksonville Center
Tue 01:07:07 PM 30.3011 -82.3944 12° North 389 448 41,000  Level Jacksonville Center
Tue 01:08:07 PM 30.4094 -82.3675 12° North 389 448 41,000  Level Jacksonville Center
Tue 01:09:07 PM 30.5033 -82.3453 12° North 389 448 41,000  Level Jacksonville Center
Tue 01:10:07 PM 30.6119 -82.3181 12° North 389 448 41,000  Level Jacksonville Center
Tue 01:11:07 PM 30.7181 -82.2908 12° North 389 448 41,000  Level Jacksonville Center
Tue 01:12:07 PM 30.8244 -82.2636 12° North 389 448 41,000  Level Jacksonville Center
Tue 01:13:07 PM 30.9350 -82.2361 12° North 389 448 41,000  Level Jacksonville Center
Tue 01:14:07 PM 31.0414 -82.2089 12° North 389 448 41,000  Level Jacksonville Center
Tue 01:15:07 PM 31.1497 -82.1836 11° North 394 453 41,000  Level Jacksonville Center
Tue 01:16:07 PM 31.2542 -82.1586 12° North 389 448 41,000  Level Jacksonville Center
Tue 01:17:07 PM 31.3606 -82.1333 11° North 389 448 41,000  Level Jacksonville Center
Tue 01:18:07 PM 31.4647 -82.1058 13° North 394 453 41,000  Level Jacksonville Center
Tue 01:19:07 PM 31.5731 -82.0756 13° North 394 453 41,000  Level Jacksonville Center
Tue 01:20:07 PM 31.6878 -82.0453 13° North 394 453 41,000  Level Jacksonville Center
Tue 01:21:07 PM 31.7856 -82.0225 11° North 394 453 41,000  Level Jacksonville Center
Tue 01:22:07 PM 31.9025 -81.9919 13° North 394 453 41,000  Level Jacksonville Center
Tue 01:23:07 PM 32.0108 -81.9639 12° North 394 453 41,000  Level Jacksonville Center
Tue 01:24:07 PM 32.1108 -81.9408 11° North 394 453 41,000  Level Jacksonville Center
Tue 01:26:15 PM 32.3394 -81.8975 North 403 464 41,000  Level Atlanta Center
Tue 01:27:15 PM 32.4381 -81.9172 350° North 368 423 41,000  Level Atlanta Center
Tue 01:28:15 PM 32.5406 -81.9347 352° North 368 423 41,000  Level Atlanta Center
Tue 01:29:15 PM 32.6389 -81.9544 350° North 368 423 41,000 -350 Level Atlanta Center
Tue 01:30:15 PM 32.7417 -81.9742 351° North 368 423 40,300 -850 Descending Atlanta Center
Tue 01:31:15 PM 32.8506 -81.9939 351° North 378 435 39,300 -950 Descending Atlanta Center
Tue 01:32:15 PM 32.9553 -82.0164 350° North 378 435 38,400 -950 Descending Atlanta Center
Tue 01:33:15 PM 33.0578 -82.0361 351° North 378 435 37,400 -1,000 Descending Atlanta Center
Tue 01:34:15 PM 33.1603 -82.0536 352° North 373 429 36,400 -950 Descending Atlanta Center
Tue 01:35:15 PM 33.2608 -82.0764 349° North 373 429 35,500 -1,050 Descending Atlanta Center
Tue 01:36:15 PM 33.3761 -82.0986 351° North 373 429 34,300 -1,100 Descending Atlanta Center
Tue 01:37:15 PM 33.4786 -82.1161 352° North 373 429 33,300 -700 Descending Atlanta Center
Tue 01:38:15 PM 33.5833 -82.1364 351° North 373 429 32,900 -650 Descending Atlanta Center
Tue 01:39:15 PM 33.6881 -82.1539 352° North 373 429 32,000 -950 Descending Atlanta Center
Tue 01:40:15 PM 33.8000 -82.1089 18° North 385 443 31,000 -1,050 Descending Atlanta Center
Tue 01:41:15 PM 33.9075 -82.0464 26° Northeast 394 453 29,900 -1,200 Descending Atlanta Center
Tue 01:42:15 PM 34.0169 -81.9836 25° Northeast 417 480 28,600 -1,350 Descending Atlanta Center
Tue 01:43:15 PM 34.1267 -81.9233 24° Northeast 422 486 27,200 -1,350 Descending Atlanta Center
Tue 01:44:15 PM 34.2342 -81.8603 26° Northeast 422 486 25,900 -1,350 Descending Atlanta Center
Tue 01:45:15 PM 34.3414 -81.7972 26° Northeast 422 486 24,500 -1,450 Descending Atlanta Center
Tue 01:46:15 PM 34.4364 -81.7444 25° Northeast 417 480 23,000 -1,600 Descending Atlanta Center
Tue 01:47:15 PM 34.5336 -81.6861 26° Northeast 403 464 21,300 -1,700 Descending Atlanta Center
Tue 01:48:15 PM 34.6264 -81.6306 26° Northeast 383 441 19,600 -1,875 Descending Atlanta Center
Tue 01:48:35 PM 34.6717 -81.6092 21° North 363 418 18,800 -1,700 Descending Atlanta Center
Tue 01:49:15 PM 34.7192 -81.5825 25° Northeast 371 427 17,900 -1,443 Descending Atlanta Center
Tue 01:49:54 PM 34.7872 -81.5400 27° Northeast 357 411 16,900 -1,400 Descending Atlanta Center
Tue 01:50:15 PM 34.8078 -81.5267 28° Northeast 359 413 16,500 -1,519 Descending Atlanta Center
Tue 01:51:13 PM 34.9006 -81.4733 25° Northeast 342 394 14,900 -1,500 Descending Atlanta Center
Tue 01:51:15 PM 34.8925 -81.4761 196° South 348 400 15,000 -1,395 Climbing Atlanta Center
Tue 01:51:56 PM 34.9583 -81.4411 24° Northeast 323 372 13,900 -1,500 Descending Atlanta Center
Tue 01:52:15 PM 34.9750 -81.4306 27° Northeast 330 380 13,500 -1,475 Descending Atlanta Center
Tue 01:52:57 PM 35.0303 -81.3806 37° Northeast 325 374 12,400 -1,500 Descending Atlanta Center
Tue 01:53:15 PM 35.0400 -81.3572 63° Northeast 324 373 12,000 -1,308 Descending Atlanta Center
Tue 01:54:15 PM 35.0564 -81.2400 80° East 307 353 10,700 -1,456 Descending Atlanta Center
Tue 01:54:58 PM 35.1094 -81.1953 35° Northeast 267 307 9,500 -1,500 Descending Atlanta Center
Tue 01:55:15 PM 35.1178 -81.1950 North 273 314 9,200 -1,377 Descending Atlanta Center
Tue 01:55:59 PM 35.1783 -81.1953 360° North 232 267 8,100 -1,200 Descending Atlanta Center
Tue 01:56:15 PM 35.1889 -81.1975 350° North 232 267 8,000 -474 Descending Atlanta Center
Tue 01:57:15 PM 35.2578 -81.2003 358° North 237 273 7,500 -571 Descending Atlanta Center
Tue 01:57:18 PM 35.2703 -81.2022 353° North 257 296 7,400 -1,241 Descending Atlanta Center
Tue 01:58:13 PM 35.3367 -81.1872 10° North 263 303 6,300 -1,053 Descending Atlanta Center
Tue 01:58:15 PM 35.3283 -81.1900 195° South 244 281 6,400 -982 Climbing Atlanta Center
Tue 01:59:08 PM 35.3922 -81.1547 24° Northeast 264 304 5,400 -737 Descending Atlanta Center
Tue 02:00:09 PM 35.4561 -81.1219 23° Northeast 250 288 5,000 -393 Descending Atlanta Center
Tue 02:02:00 PM 35.6186 -81.0324 22° Northeast  Level FlightAware Approximate

Login

Don't have an account? Register now (free) for customized features, flight alerts, and more!